sensor_id;sensor_type;location;lat;lon;timestamp;temperature;humidity
5344;DHT22;2694;48.954;8.928;2023-02-21T00:02:20;2.40;99.90
5344;DHT22;2694;48.954;8.928;2023-02-21T00:05:06;2.40;99.90
5344;DHT22;2694;48.954;8.928;2023-02-21T00:07:51;2.40;99.90
5344;DHT22;2694;48.954;8.928;2023-02-21T00:10:35;2.30;99.90
5344;DHT22;2694;48.954;8.928;2023-02-21T00:13:19;2.30;99.90
5344;DHT22;2694;48.954;8.928;2023-02-21T00:16:04;2.30;99.90
5344;DHT22;2694;48.954;8.928;2023-02-21T00:18:48;2.20;99.90
5344;DHT22;2694;48.954;8.928;2023-02-21T00:21:34;2.20;99.90
5344;DHT22;2694;48.954;8.928;2023-02-21T00:24:19;2.20;99.90
5344;DHT22;2694;48.954;8.928;2023-02-21T00:27:03;2.30;99.90
5344;DHT22;2694;48.954;8.928;2023-02-21T00:29:48;2.30;99.90
5344;DHT22;2694;48.954;8.928;2023-02-21T00:32:33;2.30;99.90
5344;DHT22;2694;48.954;8.928;2023-02-21T00:35:17;2.30;99.90
5344;DHT22;2694;48.954;8.928;2023-02-21T00:38:03;2.10;99.90
5344;DHT22;2694;48.954;8.928;2023-02-21T00:40:47;2.20;99.90
5344;DHT22;2694;48.954;8.928;2023-02-21T00:43:33;2.20;99.90
5344;DHT22;2694;48.954;8.928;2023-02-21T00:46:19;2.20;99.90
5344;DHT22;2694;48.954;8.928;2023-02-21T00:49:04;2.20;99.90
5344;DHT22;2694;48.954;8.928;2023-02-21T00:51:49;2.20;99.90
5344;DHT22;2694;48.954;8.928;2023-02-21T00:54:35;2.20;99.90
5344;DHT22;2694;48.954;8.928;2023-02-21T00:57:20;2.10;99.90
5344;DHT22;2694;48.954;8.928;2023-02-21T01:00:07;2.10;99.90
5344;DHT22;2694;48.954;8.928;2023-02-21T01:02:52;2.10;99.90
5344;DHT22;2694;48.954;8.928;2023-02-21T01:05:37;2.10;99.90
5344;DHT22;2694;48.954;8.928;2023-02-21T01:08:21;2.00;99.90
5344;DHT22;2694;48.954;8.928;2023-02-21T01:11:06;2.10;99.90
5344;DHT22;2694;48.954;8.928;2023-02-21T01:13:56;2.10;99.90
5344;DHT22;2694;48.954;8.928;2023-02-21T01:16:40;2.00;99.90
5344;DHT22;2694;48.954;8.928;2023-02-21T01:19:25;1.90;99.90
5344;DHT22;2694;48.954;8.928;2023-02-21T01:22:10;1.90;99.90
5344;DHT22;2694;48.954;8.928;2023-02-21T01:24:54;1.90;99.90
5344;DHT22;2694;48.954;8.928;2023-02-21T01:27:39;1.90;99.90
5344;DHT22;2694;48.954;8.928;2023-02-21T01:30:24;1.90;99.90
5344;DHT22;2694;48.954;8.928;2023-02-21T01:33:09;2.00;99.90
5344;DHT22;2694;48.954;8.928;2023-02-21T01:35:54;1.90;99.90
5344;DHT22;2694;48.954;8.928;2023-02-21T01:38:38;2.00;99.90
5344;DHT22;2694;48.954;8.928;2023-02-21T01:41:22;2.10;99.90
5344;DHT22;2694;48.954;8.928;2023-02-21T01:44:32;2.10;99.90
5344;DHT22;2694;48.954;8.928;2023-02-21T01:47:17;2.00;99.90
5344;DHT22;2694;48.954;8.928;2023-02-21T01:50:04;1.90;99.90
5344;DHT22;2694;48.954;8.928;2023-02-21T01:52:50;2.00;99.90
5344;DHT22;2694;48.954;8.928;2023-02-21T01:55:35;2.00;99.90
5344;DHT22;2694;48.954;8.928;2023-02-21T01:58:24;1.90;99.90
5344;DHT22;2694;48.954;8.928;2023-02-21T02:01:20;1.80;99.90
5344;DHT22;2694;48.954;8.928;2023-02-21T02:04:06;1.80;99.90
5344;DHT22;2694;48.954;8.928;2023-02-21T02:06:50;1.70;99.90
5344;DHT22;2694;48.954;8.928;2023-02-21T02:09:35;2.70;99.90
5344;DHT22;2694;48.954;8.928;2023-02-21T02:12:36;1.80;99.90
5344;DHT22;2694;48.954;8.928;2023-02-21T02:15:41;1.90;99.90
5344;DHT22;2694;48.954;8.928;2023-02-21T02:18:28;1.80;99.90
5344;DHT22;2694;48.954;8.928;2023-02-21T02:21:29;1.80;99.90
5344;DHT22;2694;48.954;8.928;2023-02-21T02:27:19;1.80;99.90
5344;DHT22;2694;48.954;8.928;2023-02-21T02:33:08;1.80;99.90
5344;DHT22;2694;48.954;8.928;2023-02-21T02:35:45;1.90;99.90
5344;DHT22;2694;48.954;8.928;2023-02-21T02:38:19;1.80;99.90
5344;DHT22;2694;48.954;8.928;2023-02-21T02:40:53;1.80;99.90
5344;DHT22;2694;48.954;8.928;2023-02-21T02:43:28;1.80;99.90
5344;DHT22;2694;48.954;8.928;2023-02-21T02:46:00;1.70;99.90
5344;DHT22;2694;48.954;8.928;2023-02-21T02:48:33;1.70;99.90
5344;DHT22;2694;48.954;8.928;2023-02-21T02:51:06;1.70;99.90
5344;DHT22;2694;48.954;8.928;2023-02-21T02:53:34;1.70;99.90
5344;DHT22;2694;48.954;8.928;2023-02-21T02:56:05;1.70;99.90
5344;DHT22;2694;48.954;8.928;2023-02-21T02:58:37;1.60;99.90
5344;DHT22;2694;48.954;8.928;2023-02-21T03:01:19;1.60;99.90
5344;DHT22;2694;48.954;8.928;2023-02-21T03:04:04;1.50;99.90
5344;DHT22;2694;48.954;8.928;2023-02-21T03:06:42;1.50;99.90
5344;DHT22;2694;48.954;8.928;2023-02-21T03:09:14;1.50;99.90
5344;DHT22;2694;48.954;8.928;2023-02-21T03:11:50;1.50;99.90
5344;DHT22;2694;48.954;8.928;2023-02-21T03:14:21;1.40;99.90
5344;DHT22;2694;48.954;8.928;2023-02-21T03:16:54;1.40;99.90
5344;DHT22;2694;48.954;8.928;2023-02-21T03:19:25;1.40;99.90
5344;DHT22;2694;48.954;8.928;2023-02-21T03:21:59;1.40;99.90
5344;DHT22;2694;48.954;8.928;2023-02-21T03:24:27;1.40;99.90
5344;DHT22;2694;48.954;8.928;2023-02-21T03:26:57;1.50;99.90
5344;DHT22;2694;48.954;8.928;2023-02-21T03:29:26;1.50;99.90
5344;DHT22;2694;48.954;8.928;2023-02-21T03:31:55;1.50;99.90
5344;DHT22;2694;48.954;8.928;2023-02-21T03:34:24;1.50;99.90
5344;DHT22;2694;48.954;8.928;2023-02-21T03:36:51;1.30;99.90
5344;DHT22;2694;48.954;8.928;2023-02-21T03:39:19;1.20;99.90
5344;DHT22;2694;48.954;8.928;2023-02-21T03:41:46;1.20;99.90
5344;DHT22;2694;48.954;8.928;2023-02-21T03:44:13;1.20;99.90
5344;DHT22;2694;48.954;8.928;2023-02-21T03:46:40;1.20;99.90
5344;DHT22;2694;48.954;8.928;2023-02-21T03:49:06;1.30;99.90
5344;DHT22;2694;48.954;8.928;2023-02-21T03:51:33;1.30;99.90
5344;DHT22;2694;48.954;8.928;2023-02-21T03:54:00;1.30;99.90
5344;DHT22;2694;48.954;8.928;2023-02-21T03:56:28;1.20;99.90
5344;DHT22;2694;48.954;8.928;2023-02-21T03:58:55;1.30;99.90
5344;DHT22;2694;48.954;8.928;2023-02-21T04:01:22;1.30;99.90
5344;DHT22;2694;48.954;8.928;2023-02-21T04:03:49;1.30;99.90
5344;DHT22;2694;48.954;8.928;2023-02-21T04:06:16;1.20;99.90
5344;DHT22;2694;48.954;8.928;2023-02-21T04:08:43;1.30;99.90
5344;DHT22;2694;48.954;8.928;2023-02-21T04:11:10;1.30;99.90
5344;DHT22;2694;48.954;8.928;2023-02-21T04:13:38;1.20;99.90
5344;DHT22;2694;48.954;8.928;2023-02-21T04:16:05;1.30;99.90
5344;DHT22;2694;48.954;8.928;2023-02-21T04:18:32;1.30;99.90
5344;DHT22;2694;48.954;8.928;2023-02-21T04:21:02;1.30;99.90
5344;DHT22;2694;48.954;8.928;2023-02-21T04:23:29;1.30;99.90
5344;DHT22;2694;48.954;8.928;2023-02-21T04:25:56;1.20;99.90
5344;DHT22;2694;48.954;8.928;2023-02-21T04:28:22;1.20;99.90
5344;DHT22;2694;48.954;8.928;2023-02-21T04:30:51;1.20;99.90
5344;DHT22;2694;48.954;8.928;2023-02-21T04:33:18;1.10;99.90
5344;DHT22;2694;48.954;8.928;2023-02-21T04:35:44;1.10;99.90
5344;DHT22;2694;48.954;8.928;2023-02-21T04:38:13;1.10;99.90
5344;DHT22;2694;48.954;8.928;2023-02-21T04:40:40;1.00;99.90
5344;DHT22;2694;48.954;8.928;2023-02-21T04:43:07;0.90;99.90
5344;DHT22;2694;48.954;8.928;2023-02-21T04:45:34;1.00;99.90
5344;DHT22;2694;48.954;8.928;2023-02-21T04:48:02;1.00;99.90
5344;DHT22;2694;48.954;8.928;2023-02-21T04:50:29;1.00;99.90
5344;DHT22;2694;48.954;8.928;2023-02-21T04:52:56;0.90;99.90
5344;DHT22;2694;48.954;8.928;2023-02-21T04:55:23;0.90;99.90
5344;DHT22;2694;48.954;8.928;2023-02-21T04:57:49;0.90;99.90
5344;DHT22;2694;48.954;8.928;2023-02-21T05:00:16;1.00;99.90
5344;DHT22;2694;48.954;8.928;2023-02-21T05:02:45;1.00;99.90
5344;DHT22;2694;48.954;8.928;2023-02-21T05:05:13;1.00;99.90
5344;DHT22;2694;48.954;8.928;2023-02-21T05:07:40;1.00;99.90
5344;DHT22;2694;48.954;8.928;2023-02-21T05:10:08;1.00;99.90
5344;DHT22;2694;48.954;8.928;2023-02-21T05:12:36;0.90;99.90
5344;DHT22;2694;48.954;8.928;2023-02-21T05:15:05;0.90;99.90
5344;DHT22;2694;48.954;8.928;2023-02-21T05:17:32;0.90;99.90
5344;DHT22;2694;48.954;8.928;2023-02-21T05:19:59;0.90;99.90
5344;DHT22;2694;48.954;8.928;2023-02-21T05:22:27;1.00;99.90
5344;DHT22;2694;48.954;8.928;2023-02-21T05:24:54;1.00;99.90
5344;DHT22;2694;48.954;8.928;2023-02-21T05:27:21;1.00;99.90
5344;DHT22;2694;48.954;8.928;2023-02-21T05:29:49;1.00;99.90
5344;DHT22;2694;48.954;8.928;2023-02-21T05:32:17;1.00;99.90
5344;DHT22;2694;48.954;8.928;2023-02-21T05:34:44;1.00;99.90
5344;DHT22;2694;48.954;8.928;2023-02-21T05:37:12;1.00;99.90
5344;DHT22;2694;48.954;8.928;2023-02-21T05:39:41;0.80;99.90
5344;DHT22;2694;48.954;8.928;2023-02-21T05:42:08;0.80;99.90
5344;DHT22;2694;48.954;8.928;2023-02-21T05:44:35;0.80;99.90
5344;DHT22;2694;48.954;8.928;2023-02-21T05:47:02;0.80;99.90
5344;DHT22;2694;48.954;8.928;2023-02-21T05:49:28;0.70;99.90
5344;DHT22;2694;48.954;8.928;2023-02-21T05:51:55;0.80;99.90
5344;DHT22;2694;48.954;8.928;2023-02-21T05:54:22;0.80;99.90
5344;DHT22;2694;48.954;8.928;2023-02-21T05:56:51;0.70;99.90
5344;DHT22;2694;48.954;8.928;2023-02-21T05:59:19;0.70;99.90
5344;DHT22;2694;48.954;8.928;2023-02-21T06:01:46;0.70;99.90
5344;DHT22;2694;48.954;8.928;2023-02-21T06:04:14;0.60;99.90
5344;DHT22;2694;48.954;8.928;2023-02-21T06:06:41;0.60;99.90
5344;DHT22;2694;48.954;8.928;2023-02-21T06:09:08;0.70;99.90
5344;DHT22;2694;48.954;8.928;2023-02-21T06:11:37;0.70;99.90
5344;DHT22;2694;48.954;8.928;2023-02-21T06:14:11;0.70;99.90
5344;DHT22;2694;48.954;8.928;2023-02-21T06:16:38;0.70;99.90
5344;DHT22;2694;48.954;8.928;2023-02-21T06:19:07;0.80;99.90
5344;DHT22;2694;48.954;8.928;2023-02-21T06:21:34;0.90;99.90
5344;DHT22;2694;48.954;8.928;2023-02-21T06:24:01;0.90;99.90
5344;DHT22;2694;48.954;8.928;2023-02-21T06:26:29;0.90;99.90
5344;DHT22;2694;48.954;8.928;2023-02-21T06:28:56;1.00;99.90
5344;DHT22;2694;48.954;8.928;2023-02-21T06:31:25;1.00;99.90
5344;DHT22;2694;48.954;8.928;2023-02-21T06:33:52;1.00;99.90
5344;DHT22;2694;48.954;8.928;2023-02-21T06:36:20;1.00;99.90
5344;DHT22;2694;48.954;8.928;2023-02-21T06:38:50;1.00;99.90
5344;DHT22;2694;48.954;8.928;2023-02-21T06:41:19;1.00;99.90
5344;DHT22;2694;48.954;8.928;2023-02-21T06:43:49;1.00;99.90
5344;DHT22;2694;48.954;8.928;2023-02-21T06:46:16;1.00;99.90
5344;DHT22;2694;48.954;8.928;2023-02-21T06:48:44;1.00;99.90
5344;DHT22;2694;48.954;8.928;2023-02-21T06:51:11;1.10;99.90
5344;DHT22;2694;48.954;8.928;2023-02-21T06:53:39;1.10;99.90
5344;DHT22;2694;48.954;8.928;2023-02-21T06:56:06;1.10;99.90
5344;DHT22;2694;48.954;8.928;2023-02-21T06:58:34;1.10;99.90
5344;DHT22;2694;48.954;8.928;2023-02-21T07:01:01;1.20;99.90
5344;DHT22;2694;48.954;8.928;2023-02-21T07:03:28;1.20;99.90
5344;DHT22;2694;48.954;8.928;2023-02-21T07:05:56;1.10;99.90
5344;DHT22;2694;48.954;8.928;2023-02-21T07:08:23;1.20;99.90
5344;DHT22;2694;48.954;8.928;2023-02-21T07:10:51;1.20;99.90
5344;DHT22;2694;48.954;8.928;2023-02-21T07:13:18;1.30;99.90
5344;DHT22;2694;48.954;8.928;2023-02-21T07:15:45;1.30;99.90
5344;DHT22;2694;48.954;8.928;2023-02-21T07:18:12;1.30;99.90
5344;DHT22;2694;48.954;8.928;2023-02-21T07:20:39;1.30;99.90
5344;DHT22;2694;48.954;8.928;2023-02-21T07:23:07;1.40;99.90
5344;DHT22;2694;48.954;8.928;2023-02-21T07:25:34;1.50;99.90
5344;DHT22;2694;48.954;8.928;2023-02-21T07:28:03;1.60;99.90
5344;DHT22;2694;48.954;8.928;2023-02-21T07:30:30;1.70;99.90
5344;DHT22;2694;48.954;8.928;2023-02-21T07:32:57;1.90;99.90
5344;DHT22;2694;48.954;8.928;2023-02-21T07:35:25;2.00;99.90
5344;DHT22;2694;48.954;8.928;2023-02-21T07:37:51;2.00;99.90
5344;DHT22;2694;48.954;8.928;2023-02-21T07:40:20;2.10;99.90
5344;DHT22;2694;48.954;8.928;2023-02-21T07:42:47;2.20;99.90
5344;DHT22;2694;48.954;8.928;2023-02-21T07:45:15;2.20;99.90
5344;DHT22;2694;48.954;8.928;2023-02-21T07:47:43;2.30;99.90
5344;DHT22;2694;48.954;8.928;2023-02-21T07:50:10;2.30;99.90
5344;DHT22;2694;48.954;8.928;2023-02-21T07:52:37;2.40;99.90
5344;DHT22;2694;48.954;8.928;2023-02-21T07:55:05;2.40;99.90
5344;DHT22;2694;48.954;8.928;2023-02-21T07:57:33;2.50;99.90
5344;DHT22;2694;48.954;8.928;2023-02-21T08:00:00;2.70;99.90
5344;DHT22;2694;48.954;8.928;2023-02-21T08:02:27;2.80;99.90
5344;DHT22;2694;48.954;8.928;2023-02-21T08:04:54;3.00;99.90
5344;DHT22;2694;48.954;8.928;2023-02-21T08:07:21;3.10;99.90
5344;DHT22;2694;48.954;8.928;2023-02-21T08:09:47;3.30;99.90
5344;DHT22;2694;48.954;8.928;2023-02-21T08:12:16;3.50;99.90
5344;DHT22;2694;48.954;8.928;2023-02-21T08:14:44;3.50;99.90
5344;DHT22;2694;48.954;8.928;2023-02-21T08:17:11;3.80;99.90
5344;DHT22;2694;48.954;8.928;2023-02-21T08:19:39;4.00;99.90
5344;DHT22;2694;48.954;8.928;2023-02-21T08:22:06;4.10;99.90
5344;DHT22;2694;48.954;8.928;2023-02-21T08:24:32;4.30;99.90
5344;DHT22;2694;48.954;8.928;2023-02-21T08:26:59;4.50;99.90
5344;DHT22;2694;48.954;8.928;2023-02-21T08:29:26;4.60;99.90
5344;DHT22;2694;48.954;8.928;2023-02-21T08:31:54;4.90;99.90
5344;DHT22;2694;48.954;8.928;2023-02-21T08:34:21;5.20;99.90
5344;DHT22;2694;48.954;8.928;2023-02-21T08:36:49;5.30;99.90
5344;DHT22;2694;48.954;8.928;2023-02-21T08:39:16;5.50;99.90
5344;DHT22;2694;48.954;8.928;2023-02-21T08:41:44;5.60;99.90
5344;DHT22;2694;48.954;8.928;2023-02-21T08:44:14;5.80;99.90
5344;DHT22;2694;48.954;8.928;2023-02-21T08:46:42;6.00;99.90
5344;DHT22;2694;48.954;8.928;2023-02-21T08:49:10;6.30;99.90
5344;DHT22;2694;48.954;8.928;2023-02-21T08:51:37;6.30;99.90
5344;DHT22;2694;48.954;8.928;2023-02-21T08:54:05;6.50;99.90
5344;DHT22;2694;48.954;8.928;2023-02-21T08:56:32;6.70;99.90
5344;DHT22;2694;48.954;8.928;2023-02-21T08:58:59;6.90;99.90
5344;DHT22;2694;48.954;8.928;2023-02-21T09:01:31;7.10;99.90
5344;DHT22;2694;48.954;8.928;2023-02-21T09:03:58;7.20;99.90
5344;DHT22;2694;48.954;8.928;2023-02-21T09:06:26;7.40;99.90
5344;DHT22;2694;48.954;8.928;2023-02-21T09:08:53;7.60;99.90
5344;DHT22;2694;48.954;8.928;2023-02-21T09:11:20;7.80;99.90
5344;DHT22;2694;48.954;8.928;2023-02-21T09:13:47;7.90;99.90
5344;DHT22;2694;48.954;8.928;2023-02-21T09:16:14;7.90;99.90
5344;DHT22;2694;48.954;8.928;2023-02-21T09:18:41;8.10;99.90
5344;DHT22;2694;48.954;8.928;2023-02-21T09:21:08;8.20;99.90
5344;DHT22;2694;48.954;8.928;2023-02-21T09:23:36;8.40;99.90
5344;DHT22;2694;48.954;8.928;2023-02-21T09:26:03;8.60;99.90
5344;DHT22;2694;48.954;8.928;2023-02-21T09:28:30;8.90;99.90
5344;DHT22;2694;48.954;8.928;2023-02-21T09:30:57;8.90;99.90
5344;DHT22;2694;48.954;8.928;2023-02-21T09:33:23;8.90;99.90
5344;DHT22;2694;48.954;8.928;2023-02-21T09:35:50;9.00;99.90
5344;DHT22;2694;48.954;8.928;2023-02-21T09:38:18;9.10;99.90
5344;DHT22;2694;48.954;8.928;2023-02-21T09:40:48;9.50;99.90
5344;DHT22;2694;48.954;8.928;2023-02-21T09:43:19;9.70;99.90
5344;DHT22;2694;48.954;8.928;2023-02-21T09:45:48;9.90;99.90
5344;DHT22;2694;48.954;8.928;2023-02-21T09:48:19;9.90;99.90
5344;DHT22;2694;48.954;8.928;2023-02-21T09:50:48;10.10;99.90
5344;DHT22;2694;48.954;8.928;2023-02-21T09:53:19;10.40;99.90
5344;DHT22;2694;48.954;8.928;2023-02-21T09:55:49;10.40;99.90
5344;DHT22;2694;48.954;8.928;2023-02-21T09:58:19;10.50;99.90
5344;DHT22;2694;48.954;8.928;2023-02-21T10:00:46;10.70;99.90
5344;DHT22;2694;48.954;8.928;2023-02-21T10:03:43;10.90;99.90
5344;DHT22;2694;48.954;8.928;2023-02-21T10:06:21;11.10;99.90
5344;DHT22;2694;48.954;8.928;2023-02-21T10:08:58;11.10;99.90
5344;DHT22;2694;48.954;8.928;2023-02-21T10:11:36;11.30;99.90
5344;DHT22;2694;48.954;8.928;2023-02-21T10:14:15;11.30;99.90
5344;DHT22;2694;48.954;8.928;2023-02-21T10:16:50;11.50;99.90
5344;DHT22;2694;48.954;8.928;2023-02-21T10:19:23;11.60;99.90
5344;DHT22;2694;48.954;8.928;2023-02-21T10:21:54;11.70;99.90
5344;DHT22;2694;48.954;8.928;2023-02-21T10:24:24;11.70;99.90
5344;DHT22;2694;48.954;8.928;2023-02-21T10:26:58;11.70;99.90
5344;DHT22;2694;48.954;8.928;2023-02-21T10:29:34;11.80;99.90
5344;DHT22;2694;48.954;8.928;2023-02-21T10:32:03;11.80;99.90
5344;DHT22;2694;48.954;8.928;2023-02-21T10:34:31;11.90;99.90
5344;DHT22;2694;48.954;8.928;2023-02-21T10:37:03;12.00;99.90
5344;DHT22;2694;48.954;8.928;2023-02-21T10:39:39;12.10;99.90
5344;DHT22;2694;48.954;8.928;2023-02-21T10:42:11;12.00;99.90
5344;DHT22;2694;48.954;8.928;2023-02-21T10:44:39;12.00;99.90
5344;DHT22;2694;48.954;8.928;2023-02-21T10:47:12;12.10;99.90
5344;DHT22;2694;48.954;8.928;2023-02-21T10:49:45;12.30;99.90
5344;DHT22;2694;48.954;8.928;2023-02-21T10:52:15;12.40;99.90
5344;DHT22;2694;48.954;8.928;2023-02-21T10:54:59;12.60;99.90
5344;DHT22;2694;48.954;8.928;2023-02-21T10:57:30;12.80;99.90
5344;DHT22;2694;48.954;8.928;2023-02-21T10:59:57;13.00;99.90
5344;DHT22;2694;48.954;8.928;2023-02-21T11:02:31;13.00;99.90
5344;DHT22;2694;48.954;8.928;2023-02-21T11:05:08;13.00;99.90
5344;DHT22;2694;48.954;8.928;2023-02-21T11:07:37;12.90;99.90
5344;DHT22;2694;48.954;8.928;2023-02-21T11:10:28;13.00;99.90
5344;DHT22;2694;48.954;8.928;2023-02-21T11:13:06;12.90;99.90
5344;DHT22;2694;48.954;8.928;2023-02-21T11:15:33;12.70;99.90
5344;DHT22;2694;48.954;8.928;2023-02-21T11:18:15;12.80;99.90
5344;DHT22;2694;48.954;8.928;2023-02-21T11:20:43;12.90;99.90
5344;DHT22;2694;48.954;8.928;2023-02-21T11:23:24;13.10;99.90
5344;DHT22;2694;48.954;8.928;2023-02-21T11:25:57;13.10;99.90
5344;DHT22;2694;48.954;8.928;2023-02-21T11:28:26;13.00;99.90
5344;DHT22;2694;48.954;8.928;2023-02-21T11:31:07;13.00;99.90
5344;DHT22;2694;48.954;8.928;2023-02-21T11:33:39;13.10;99.90
5344;DHT22;2694;48.954;8.928;2023-02-21T11:36:10;13.20;99.90
5344;DHT22;2694;48.954;8.928;2023-02-21T11:38:39;13.20;99.90
5344;DHT22;2694;48.954;8.928;2023-02-21T11:41:16;13.10;99.90
5344;DHT22;2694;48.954;8.928;2023-02-21T11:43:48;13.20;99.90
5344;DHT22;2694;48.954;8.928;2023-02-21T11:46:33;13.30;99.90
5344;DHT22;2694;48.954;8.928;2023-02-21T11:49:10;13.30;99.90
5344;DHT22;2694;48.954;8.928;2023-02-21T11:51:43;13.40;99.90
5344;DHT22;2694;48.954;8.928;2023-02-21T11:54:11;13.40;99.90
5344;DHT22;2694;48.954;8.928;2023-02-21T11:56:51;13.40;99.90
5344;DHT22;2694;48.954;8.928;2023-02-21T11:59:31;13.50;99.90
5344;DHT22;2694;48.954;8.928;2023-02-21T12:02:23;13.60;99.90
5344;DHT22;2694;48.954;8.928;2023-02-21T12:05:04;13.80;99.90
5344;DHT22;2694;48.954;8.928;2023-02-21T12:07:37;13.80;99.90
5344;DHT22;2694;48.954;8.928;2023-02-21T12:10:30;13.70;99.90
5344;DHT22;2694;48.954;8.928;2023-02-21T12:13:13;13.70;99.90
5344;DHT22;2694;48.954;8.928;2023-02-21T12:15:50;13.90;99.80
5344;DHT22;2694;48.954;8.928;2023-02-21T12:18:38;13.90;99.80
5344;DHT22;2694;48.954;8.928;2023-02-21T12:21:20;13.90;99.90
5344;DHT22;2694;48.954;8.928;2023-02-21T12:23:56;14.00;99.90
5344;DHT22;2694;48.954;8.928;2023-02-21T12:26:33;14.20;99.50
5344;DHT22;2694;48.954;8.928;2023-02-21T12:29:17;14.30;99.60
5344;DHT22;2694;48.954;8.928;2023-02-21T12:32:01;14.20;99.50
5344;DHT22;2694;48.954;8.928;2023-02-21T12:34:41;14.20;99.70
5344;DHT22;2694;48.954;8.928;2023-02-21T12:37:19;14.20;99.10
5344;DHT22;2694;48.954;8.928;2023-02-21T12:40:02;14.20;99.20
5344;DHT22;2694;48.954;8.928;2023-02-21T12:45:43;14.30;99.50
5344;DHT22;2694;48.954;8.928;2023-02-21T12:48:17;14.30;99.20
5344;DHT22;2694;48.954;8.928;2023-02-21T12:50:50;14.50;98.80
5344;DHT22;2694;48.954;8.928;2023-02-21T12:53:21;14.50;98.90
5344;DHT22;2694;48.954;8.928;2023-02-21T12:55:54;14.50;99.40
5344;DHT22;2694;48.954;8.928;2023-02-21T12:58:28;14.60;98.60
5344;DHT22;2694;48.954;8.928;2023-02-21T13:00:59;14.60;99.20
5344;DHT22;2694;48.954;8.928;2023-02-21T13:03:39;14.60;99.70
5344;DHT22;2694;48.954;8.928;2023-02-21T13:06:12;14.60;99.90
5344;DHT22;2694;48.954;8.928;2023-02-21T13:08:50;14.50;99.90
5344;DHT22;2694;48.954;8.928;2023-02-21T13:11:23;14.50;99.90
5344;DHT22;2694;48.954;8.928;2023-02-21T13:13:51;14.50;99.90
5344;DHT22;2694;48.954;8.928;2023-02-21T13:16:18;14.60;99.90
5344;DHT22;2694;48.954;8.928;2023-02-21T13:18:51;14.60;99.90
5344;DHT22;2694;48.954;8.928;2023-02-21T13:21:31;14.60;99.90
5344;DHT22;2694;48.954;8.928;2023-02-21T13:24:03;14.60;99.90
5344;DHT22;2694;48.954;8.928;2023-02-21T13:26:57;14.60;99.60
5344;DHT22;2694;48.954;8.928;2023-02-21T13:29:28;14.70;99.20
5344;DHT22;2694;48.954;8.928;2023-02-21T13:31:59;14.70;99.50
5344;DHT22;2694;48.954;8.928;2023-02-21T13:34:36;14.70;99.10
5344;DHT22;2694;48.954;8.928;2023-02-21T13:37:06;14.70;99.70
5344;DHT22;2694;48.954;8.928;2023-02-21T13:39:35;14.70;99.50
5344;DHT22;2694;48.954;8.928;2023-02-21T13:42:06;14.80;99.20
5344;DHT22;2694;48.954;8.928;2023-02-21T13:44:36;14.90;99.00
5344;DHT22;2694;48.954;8.928;2023-02-21T13:47:11;14.90;99.30
5344;DHT22;2694;48.954;8.928;2023-02-21T13:49:46;14.90;99.30
5344;DHT22;2694;48.954;8.928;2023-02-21T13:55:26;15.00;99.20
5344;DHT22;2694;48.954;8.928;2023-02-21T14:01:39;15.00;99.50
5344;DHT22;2694;48.954;8.928;2023-02-21T14:07:57;15.00;98.80
5344;DHT22;2694;48.954;8.928;2023-02-21T14:10:42;15.00;99.10
5344;DHT22;2694;48.954;8.928;2023-02-21T14:13:22;15.00;98.90
5344;DHT22;2694;48.954;8.928;2023-02-21T14:15:56;14.90;99.00
5344;DHT22;2694;48.954;8.928;2023-02-21T14:18:26;15.00;98.00
5344;DHT22;2694;48.954;8.928;2023-02-21T14:20:55;15.10;97.50
5344;DHT22;2694;48.954;8.928;2023-02-21T14:23:37;15.10;97.50
5344;DHT22;2694;48.954;8.928;2023-02-21T14:26:05;15.00;97.80
5344;DHT22;2694;48.954;8.928;2023-02-21T14:29:01;15.10;97.20
5344;DHT22;2694;48.954;8.928;2023-02-21T14:31:49;15.30;97.20
5344;DHT22;2694;48.954;8.928;2023-02-21T14:34:21;15.20;97.80
5344;DHT22;2694;48.954;8.928;2023-02-21T14:36:50;15.30;97.10
5344;DHT22;2694;48.954;8.928;2023-02-21T14:39:19;15.30;97.40
5344;DHT22;2694;48.954;8.928;2023-02-21T14:42:01;15.30;97.30
5344;DHT22;2694;48.954;8.928;2023-02-21T14:44:36;15.40;97.30
5344;DHT22;2694;48.954;8.928;2023-02-21T14:50:16;15.40;97.40
5344;DHT22;2694;48.954;8.928;2023-02-21T14:56:28;15.30;97.50
5344;DHT22;2694;48.954;8.928;2023-02-21T15:01:56;15.30;97.20
5344;DHT22;2694;48.954;8.928;2023-02-21T15:04:32;15.30;97.10
5344;DHT22;2694;48.954;8.928;2023-02-21T15:07:07;15.20;97.00
5344;DHT22;2694;48.954;8.928;2023-02-21T15:09:36;15.20;97.00
5344;DHT22;2694;48.954;8.928;2023-02-21T15:12:08;15.10;96.80
5344;DHT22;2694;48.954;8.928;2023-02-21T15:14:39;15.30;97.30
5344;DHT22;2694;48.954;8.928;2023-02-21T15:17:15;15.20;97.40
5344;DHT22;2694;48.954;8.928;2023-02-21T15:19:42;15.10;97.40
5344;DHT22;2694;48.954;8.928;2023-02-21T15:22:19;15.10;97.80
5344;DHT22;2694;48.954;8.928;2023-02-21T15:28:24;15.00;97.70
5344;DHT22;2694;48.954;8.928;2023-02-21T15:30:57;15.00;97.70
5344;DHT22;2694;48.954;8.928;2023-02-21T15:33:25;14.90;97.80
5344;DHT22;2694;48.954;8.928;2023-02-21T15:35:56;14.90;97.80
5344;DHT22;2694;48.954;8.928;2023-02-21T15:38:30;15.00;98.00
5344;DHT22;2694;48.954;8.928;2023-02-21T15:41:01;15.00;98.40
5344;DHT22;2694;48.954;8.928;2023-02-21T15:43:38;14.90;98.00
5344;DHT22;2694;48.954;8.928;2023-02-21T15:46:11;14.90;98.10
5344;DHT22;2694;48.954;8.928;2023-02-21T15:48:38;14.90;98.00
5344;DHT22;2694;48.954;8.928;2023-02-21T15:51:06;15.00;97.60
5344;DHT22;2694;48.954;8.928;2023-02-21T15:53:34;15.00;97.80
5344;DHT22;2694;48.954;8.928;2023-02-21T15:56:19;14.90;97.70
5344;DHT22;2694;48.954;8.928;2023-02-21T15:59:25;14.80;98.00
5344;DHT22;2694;48.954;8.928;2023-02-21T16:02:15;14.70;97.80
5344;DHT22;2694;48.954;8.928;2023-02-21T16:04:44;14.60;98.10
5344;DHT22;2694;48.954;8.928;2023-02-21T16:07:17;14.50;98.10
5344;DHT22;2694;48.954;8.928;2023-02-21T16:09:47;14.40;98.20
5344;DHT22;2694;48.954;8.928;2023-02-21T16:12:27;14.30;98.40
5344;DHT22;2694;48.954;8.928;2023-02-21T16:14:57;14.20;98.80
5344;DHT22;2694;48.954;8.928;2023-02-21T16:17:28;13.90;99.50
5344;DHT22;2694;48.954;8.928;2023-02-21T16:19:58;13.60;99.90
5344;DHT22;2694;48.954;8.928;2023-02-21T16:22:32;13.30;99.90
5344;DHT22;2694;48.954;8.928;2023-02-21T16:25:15;13.10;99.90
5344;DHT22;2694;48.954;8.928;2023-02-21T16:27:44;12.90;99.90
5344;DHT22;2694;48.954;8.928;2023-02-21T16:30:15;12.80;99.90
5344;DHT22;2694;48.954;8.928;2023-02-21T16:32:44;12.60;99.90
5344;DHT22;2694;48.954;8.928;2023-02-21T16:35:14;12.50;99.90
5344;DHT22;2694;48.954;8.928;2023-02-21T16:37:41;12.30;99.90
5344;DHT22;2694;48.954;8.928;2023-02-21T16:40:13;12.20;99.90
5344;DHT22;2694;48.954;8.928;2023-02-21T16:42:41;12.00;99.90
5344;DHT22;2694;48.954;8.928;2023-02-21T16:45:08;11.80;99.90
5344;DHT22;2694;48.954;8.928;2023-02-21T16:47:36;11.70;99.90
5344;DHT22;2694;48.954;8.928;2023-02-21T16:50:03;11.50;99.90
5344;DHT22;2694;48.954;8.928;2023-02-21T16:52:30;11.40;99.90
5344;DHT22;2694;48.954;8.928;2023-02-21T16:54:57;11.30;99.90
5344;DHT22;2694;48.954;8.928;2023-02-21T16:57:24;11.20;99.90
5344;DHT22;2694;48.954;8.928;2023-02-21T16:59:51;11.10;99.90
5344;DHT22;2694;48.954;8.928;2023-02-21T17:02:18;11.10;99.90
5344;DHT22;2694;48.954;8.928;2023-02-21T17:04:48;10.90;99.90
5344;DHT22;2694;48.954;8.928;2023-02-21T17:07:15;10.80;99.90
5344;DHT22;2694;48.954;8.928;2023-02-21T17:09:42;10.70;99.90
5344;DHT22;2694;48.954;8.928;2023-02-21T17:12:11;10.60;99.90
5344;DHT22;2694;48.954;8.928;2023-02-21T17:14:38;10.50;99.90
5344;DHT22;2694;48.954;8.928;2023-02-21T17:17:05;10.30;99.90
5344;DHT22;2694;48.954;8.928;2023-02-21T17:19:32;10.30;99.90
5344;DHT22;2694;48.954;8.928;2023-02-21T17:22:01;10.10;99.90
5344;DHT22;2694;48.954;8.928;2023-02-21T17:24:28;10.00;99.90